createdAt,value
2023-01-23T00:01:39.619Z,0.91
2023-01-23T00:04:07.864Z,0.98
2023-01-23T00:06:37.359Z,0.87
2023-01-23T00:09:05.548Z,0.90
2023-01-23T00:11:33.751Z,0.86
2023-01-23T00:14:03.072Z,0.84
2023-01-23T00:16:33.187Z,0.89
2023-01-23T00:19:01.631Z,0.92
2023-01-23T00:21:30.767Z,0.90
2023-01-23T00:24:01.653Z,0.82
2023-01-23T00:26:32.839Z,0.72
2023-01-23T00:29:01.199Z,0.76
2023-01-23T00:31:32.653Z,0.81
2023-01-23T00:34:02.957Z,0.86
2023-01-23T00:36:33.784Z,0.82
2023-01-23T00:39:04.882Z,0.68
2023-01-23T00:41:33.108Z,0.80
2023-01-23T00:44:01.255Z,0.73
2023-01-23T00:46:29.534Z,0.72
2023-01-23T00:48:58.134Z,0.64
2023-01-23T00:51:26.915Z,0.70
2023-01-23T00:53:55.135Z,0.54
2023-01-23T00:56:24.770Z,0.61
2023-01-23T00:58:54.753Z,0.50
2023-01-23T01:01:23.929Z,0.45
2023-01-23T01:03:52.153Z,0.34
2023-01-23T01:06:20.257Z,0.39
2023-01-23T01:08:49.543Z,0.36
2023-01-23T01:11:17.896Z,0.32
2023-01-23T01:13:47.518Z,0.38
2023-01-23T01:16:15.704Z,0.37
2023-01-23T01:18:44.653Z,0.46
2023-01-23T01:21:16.120Z,0.38
2023-01-23T01:23:44.429Z,0.31
2023-01-23T01:26:12.994Z,0.30
2023-01-23T01:28:42.490Z,0.33
2023-01-23T01:31:13.722Z,0.24
2023-01-23T01:33:43.152Z,0.17
2023-01-23T01:36:12.428Z,0.20
2023-01-23T01:38:41.121Z,0.23
2023-01-23T01:41:10.128Z,0.31
2023-01-23T01:43:38.279Z,0.32
2023-01-23T01:46:14.891Z,0.37
2023-01-23T01:48:53.190Z,0.36
2023-01-23T01:51:27.098Z,0.43
2023-01-23T01:54:02.339Z,0.46
2023-01-23T01:56:33.309Z,0.54
2023-01-23T01:59:03.267Z,0.56
2023-01-23T02:01:33.116Z,0.70
2023-01-23T02:04:03.574Z,0.71
2023-01-23T02:06:31.824Z,0.80
2023-01-23T02:09:04.945Z,0.83
2023-01-23T02:11:33.213Z,0.92
2023-01-23T02:14:01.430Z,0.99
2023-01-23T02:16:43.872Z,0.95
2023-01-23T02:19:31.346Z,0.97
2023-01-23T02:22:09.483Z,0.96
2023-01-23T02:24:44.043Z,1.00
2023-01-23T02:27:14.117Z,0.97
2023-01-23T02:29:44.698Z,0.97
2023-01-23T02:32:13.382Z,0.99
2023-01-23T02:34:42.774Z,1.01
2023-01-23T02:37:11.387Z,0.99
2023-01-23T02:39:39.832Z,1.02
2023-01-23T02:42:10.946Z,1.01
2023-01-23T02:44:48.677Z,0.99
2023-01-23T02:47:19.378Z,1.01
2023-01-23T02:49:47.471Z,0.95
2023-01-23T02:52:15.936Z,0.92
2023-01-23T02:54:44.308Z,0.91
2023-01-23T02:57:14.539Z,0.93
2023-01-23T03:00:05.189Z,0.92
2023-01-23T03:02:38.389Z,0.96
2023-01-23T03:05:07.492Z,0.99
2023-01-23T03:07:35.836Z,0.85
2023-01-23T03:10:05.749Z,0.90
2023-01-23T03:12:33.855Z,0.82
2023-01-23T03:15:02.746Z,0.82
2023-01-23T03:17:30.867Z,0.83
2023-01-23T03:20:00.403Z,0.72
2023-01-23T03:22:28.619Z,0.78
2023-01-23T03:24:58.874Z,0.79
2023-01-23T03:27:27.009Z,0.79
2023-01-23T03:30:15.812Z,0.77
2023-01-23T03:32:45.197Z,0.73
2023-01-23T03:35:18.101Z,0.73
2023-01-23T03:37:46.831Z,0.72
2023-01-23T03:40:35.412Z,0.71
2023-01-23T03:43:04.028Z,0.72
2023-01-23T03:45:32.707Z,0.77
2023-01-23T03:48:01.252Z,0.80
2023-01-23T03:50:32.651Z,0.77
2023-01-23T03:53:00.755Z,0.63
2023-01-23T03:55:28.954Z,0.69
2023-01-23T03:57:57.114Z,0.77
2023-01-23T04:00:30.803Z,0.82
2023-01-23T04:03:04.554Z,0.83
2023-01-23T04:05:34.364Z,0.75
2023-01-23T04:08:03.300Z,0.84
2023-01-23T04:10:32.413Z,0.85
2023-01-23T04:13:05.781Z,0.84
2023-01-23T04:15:34.323Z,0.87
2023-01-23T04:18:05.874Z,0.95
2023-01-23T04:20:36.203Z,1.00
2023-01-23T04:23:04.277Z,0.93
2023-01-23T04:25:32.477Z,1.00
2023-01-23T04:28:00.683Z,1.03
2023-01-23T04:30:29.163Z,1.04
2023-01-23T04:33:01.379Z,0.90
2023-01-23T04:35:29.798Z,0.91
2023-01-23T04:37:59.454Z,0.94
2023-01-23T04:40:28.267Z,1.01
2023-01-23T04:43:00.203Z,1.02
2023-01-23T04:45:44.021Z,1.07
2023-01-23T04:48:35.188Z,1.20
2023-01-23T04:51:03.409Z,1.07
2023-01-23T04:53:33.207Z,1.05
2023-01-23T04:56:04.026Z,1.11
2023-01-23T04:58:32.389Z,1.11
2023-01-23T05:01:04.396Z,1.16
2023-01-23T05:03:35.338Z,1.26
2023-01-23T05:06:03.777Z,1.26
2023-01-23T05:08:33.296Z,1.27
2023-01-23T05:11:13.995Z,1.23
2023-01-23T05:13:42.205Z,1.21
2023-01-23T05:16:10.621Z,1.22
2023-01-23T05:18:58.698Z,1.24
2023-01-23T05:21:28.392Z,1.24
2023-01-23T05:23:58.097Z,1.31
2023-01-23T05:26:26.384Z,1.23
2023-01-23T05:28:56.002Z,1.28
2023-01-23T05:31:24.298Z,1.32
2023-01-23T05:34:12.502Z,1.35
2023-01-23T05:36:41.508Z,1.33
2023-01-23T05:39:11.668Z,1.34
2023-01-23T05:41:39.899Z,1.31
2023-01-23T05:44:34.292Z,1.33
2023-01-23T05:47:09.726Z,1.33
2023-01-23T05:49:37.874Z,1.36
2023-01-23T05:52:07.427Z,1.30
2023-01-23T05:54:37.095Z,1.34
2023-01-23T05:57:05.684Z,1.35
2023-01-23T05:59:52.158Z,1.39
2023-01-23T06:02:52.848Z,1.37
2023-01-23T06:05:47.024Z,1.43
2023-01-23T06:08:19.527Z,1.43
2023-01-23T06:10:49.104Z,1.43
2023-01-23T06:13:17.494Z,1.42
2023-01-23T06:15:45.835Z,1.45
2023-01-23T06:18:14.073Z,1.55
2023-01-23T06:20:42.317Z,1.64
2023-01-23T06:23:10.757Z,1.72
2023-01-23T06:25:39.041Z,1.70
2023-01-23T06:28:11.131Z,1.74
2023-01-23T06:30:39.495Z,1.79
2023-01-23T06:33:16.121Z,1.99
2023-01-23T06:35:44.327Z,2.02
2023-01-23T06:38:12.502Z,1.98
2023-01-23T06:40:41.265Z,1.94
2023-01-23T06:43:25.363Z,1.86
2023-01-23T06:45:54.443Z,1.81
2023-01-23T06:48:22.597Z,1.73
2023-01-23T06:50:50.871Z,1.74
2023-01-23T06:53:19.870Z,1.78
2023-01-23T06:55:51.058Z,1.76
2023-01-23T06:58:19.679Z,1.73
2023-01-23T07:00:49.586Z,1.81
2023-01-23T07:03:37.714Z,1.85
2023-01-23T07:06:07.364Z,1.86
2023-01-23T07:08:36.465Z,1.84
2023-01-23T07:11:04.959Z,1.86
2023-01-23T07:13:33.417Z,1.82
2023-01-23T07:16:03.299Z,1.91
2023-01-23T07:18:32.793Z,1.91
2023-01-23T07:21:05.607Z,1.93
2023-01-23T07:23:34.399Z,1.94
2023-01-23T07:26:03.684Z,2.01
2023-01-23T07:28:32.328Z,2.04
2023-01-23T07:31:00.517Z,2.13
2023-01-23T07:33:30.212Z,2.18
2023-01-23T07:35:58.367Z,2.19
2023-01-23T07:38:26.627Z,2.24
2023-01-23T07:40:59.397Z,2.39
2023-01-23T07:43:27.633Z,2.45
2023-01-23T07:45:55.812Z,2.60
2023-01-23T07:48:23.880Z,2.65
2023-01-23T07:50:53.452Z,2.78
2023-01-23T07:53:21.596Z,2.87
2023-01-23T07:55:49.875Z,2.91
2023-01-23T07:58:18.012Z,2.98
2023-01-23T08:00:46.196Z,3.02
2023-01-23T08:03:14.368Z,3.10
2023-01-23T08:05:43.954Z,3.16
2023-01-23T08:08:14.117Z,3.16
2023-01-23T08:10:42.325Z,3.23
2023-01-23T08:13:10.666Z,3.26
2023-01-23T08:15:39.186Z,3.34
2023-01-23T08:18:07.497Z,3.39
2023-01-23T08:20:35.671Z,3.36
2023-01-23T08:23:03.777Z,3.39
2023-01-23T08:25:33.601Z,3.15
2023-01-23T08:28:01.712Z,3.07
2023-01-23T08:30:29.892Z,2.97
2023-01-23T08:32:58.490Z,2.97
2023-01-23T08:35:26.772Z,2.90
2023-01-23T08:37:54.935Z,2.77
2023-01-23T08:40:23.197Z,2.77
2023-01-23T08:42:52.944Z,2.72
2023-01-23T08:45:21.025Z,2.85
2023-01-23T08:47:49.210Z,2.89
2023-01-23T08:50:17.742Z,2.99
2023-01-23T08:52:45.979Z,2.99
2023-01-23T08:55:14.273Z,3.13
2023-01-23T08:57:42.390Z,3.13
2023-01-23T09:00:13.516Z,3.24
2023-01-23T09:02:41.682Z,3.32
2023-01-23T09:05:10.707Z,3.38
2023-01-23T09:07:38.898Z,3.43
2023-01-23T09:10:08.037Z,3.45
2023-01-23T09:12:36.463Z,3.53
2023-01-23T09:15:04.874Z,3.62
2023-01-23T09:17:34.399Z,3.71
2023-01-23T09:20:05.822Z,3.79
2023-01-23T09:22:34.046Z,3.88
2023-01-23T09:25:02.259Z,3.98
2023-01-23T09:27:30.353Z,4.07
2023-01-23T09:29:58.461Z,4.19
2023-01-23T09:32:26.695Z,4.25
2023-01-23T09:34:56.186Z,4.38
2023-01-23T09:37:24.274Z,4.45
2023-01-23T09:39:52.389Z,4.51
2023-01-23T09:42:24.882Z,4.56
2023-01-23T09:44:58.392Z,4.60
2023-01-23T09:47:33.996Z,4.72
2023-01-23T09:50:07.739Z,4.69
2023-01-23T09:52:40.021Z,4.75
2023-01-23T09:55:14.923Z,4.78
2023-01-23T09:57:47.721Z,4.85
2023-01-23T10:00:21.849Z,4.85
2023-01-23T10:02:50.460Z,5.01
2023-01-23T10:05:28.448Z,5.16
2023-01-23T10:08:06.663Z,5.14
2023-01-23T10:10:54.796Z,5.06
2023-01-23T10:13:36.651Z,5.01
2023-01-23T10:16:19.946Z,5.01
2023-01-23T10:18:55.189Z,5.04
2023-01-23T10:21:33.312Z,5.04
2023-01-23T10:24:09.873Z,5.07
2023-01-23T10:26:41.153Z,5.16
2023-01-23T10:29:16.704Z,5.21
2023-01-23T10:31:50.557Z,5.20
2023-01-23T10:34:24.979Z,5.21
2023-01-23T10:37:06.943Z,5.23
2023-01-23T10:39:45.545Z,5.28
2023-01-23T10:42:14.190Z,5.27
2023-01-23T10:44:42.421Z,5.31
2023-01-23T10:47:21.090Z,5.28
2023-01-23T10:49:49.449Z,5.27
2023-01-23T10:52:34.968Z,5.30
2023-01-23T10:55:03.748Z,5.15
2023-01-23T10:57:37.280Z,5.16
2023-01-23T11:00:08.526Z,5.13
2023-01-23T11:02:39.308Z,5.15
2023-01-23T11:05:46.838Z,5.13
2023-01-23T11:08:29.376Z,5.15
2023-01-23T11:11:20.399Z,5.19
2023-01-23T11:13:51.170Z,5.21
2023-01-23T11:16:22.378Z,5.18
2023-01-23T11:18:55.275Z,5.18
2023-01-23T11:21:24.892Z,5.15
2023-01-23T11:24:09.614Z,5.00
2023-01-23T11:26:39.809Z,4.87
2023-01-23T11:29:24.812Z,5.00
2023-01-23T11:31:59.092Z,5.02
2023-01-23T11:34:31.825Z,4.98
2023-01-23T11:37:09.163Z,4.98
2023-01-23T11:39:49.930Z,4.96
2023-01-23T11:42:19.605Z,4.80
2023-01-23T11:44:51.311Z,4.78
2023-01-23T11:47:42.879Z,4.74
2023-01-23T11:50:30.244Z,4.70
2023-01-23T11:53:06.454Z,4.67
2023-01-23T11:56:01.992Z,4.74
2023-01-23T11:58:50.332Z,4.69
2023-01-23T12:01:24.207Z,4.63
2023-01-23T12:04:21.494Z,4.63
2023-01-23T12:07:12.510Z,4.72
2023-01-23T12:09:48.775Z,4.58
2023-01-23T12:12:29.223Z,4.62
2023-01-23T12:15:04.464Z,4.64
2023-01-23T12:17:42.247Z,4.56
2023-01-23T12:20:30.955Z,4.62
2023-01-23T12:23:15.375Z,4.64
2023-01-23T12:25:49.831Z,4.66
2023-01-23T12:28:35.801Z,4.64
2023-01-23T12:31:18.812Z,4.63
2023-01-23T12:34:02.304Z,4.56
2023-01-23T12:37:06.867Z,4.51
2023-01-23T12:39:53.282Z,4.52
2023-01-23T12:42:25.837Z,4.48
2023-01-23T12:45:02.655Z,4.45
2023-01-23T12:47:38.471Z,4.42
2023-01-23T12:50:19.107Z,4.33
2023-01-23T12:52:51.164Z,4.34
2023-01-23T12:55:23.736Z,4.33
2023-01-23T12:58:08.004Z,4.37
2023-01-23T13:00:49.795Z,4.30
2023-01-23T13:03:46.304Z,4.35
2023-01-23T13:06:42.893Z,4.29
2023-01-23T13:09:22.022Z,4.27
2023-01-23T13:11:59.881Z,4.19
2023-01-23T13:15:10.464Z,4.26
2023-01-23T13:17:41.067Z,4.27
2023-01-23T13:20:44.906Z,4.38
2023-01-23T13:23:25.367Z,4.20
2023-01-23T13:26:29.334Z,4.30
2023-01-23T13:29:04.041Z,4.29
2023-01-23T13:31:45.460Z,4.45
2023-01-23T13:34:38.310Z,4.38
2023-01-23T13:37:46.935Z,4.29
2023-01-23T13:40:17.787Z,4.30
2023-01-23T13:42:46.415Z,4.31
2023-01-23T13:45:31.507Z,4.35
2023-01-23T14:21:55.150Z,4.44
2023-01-23T14:24:25.125Z,4.44
2023-01-23T14:27:02.521Z,4.40
2023-01-23T14:29:32.887Z,4.42
2023-01-23T14:32:02.732Z,4.43
2023-01-23T14:34:30.955Z,4.39
2023-01-23T14:37:08.851Z,4.42
2023-01-23T14:39:37.634Z,4.45
2023-01-23T14:42:11.638Z,4.41
2023-01-23T14:44:47.865Z,4.40
2023-01-23T14:47:24.452Z,4.45
2023-01-23T14:49:53.872Z,4.46
2023-01-23T14:52:24.946Z,4.45
2023-01-23T14:54:54.463Z,4.47
2023-01-23T14:57:25.066Z,4.49
2023-01-23T14:59:56.614Z,4.50
2023-01-23T15:02:33.713Z,4.49
2023-01-23T15:05:09.405Z,4.36
2023-01-23T15:07:44.790Z,4.43
2023-01-23T15:10:18.853Z,4.46
2023-01-23T15:12:53.228Z,4.44
2023-01-23T15:15:23.825Z,4.44
2023-01-23T15:17:54.494Z,4.40
2023-01-23T15:20:36.596Z,4.33
2023-01-23T15:23:25.700Z,4.28
2023-01-23T15:26:13.457Z,4.34
2023-01-23T15:28:43.115Z,4.44
2023-01-23T15:31:36.677Z,4.38
2023-01-23T15:34:28.150Z,4.38
2023-01-23T15:37:06.457Z,4.48
2023-01-23T15:39:39.517Z,4.50
2023-01-23T15:42:27.047Z,4.41
2023-01-23T15:44:55.539Z,4.40
2023-01-23T15:47:23.711Z,4.36
2023-01-23T15:49:53.712Z,4.32
2023-01-23T15:52:23.979Z,4.30
2023-01-23T15:54:54.455Z,4.33
2023-01-23T15:57:22.665Z,4.25
2023-01-23T15:59:50.877Z,4.23
2023-01-23T16:02:30.728Z,4.24
2023-01-23T16:05:02.034Z,4.27
2023-01-23T16:07:34.601Z,4.27
2023-01-23T16:10:04.417Z,4.29
2023-01-23T16:12:32.925Z,4.29
2023-01-23T16:15:01.086Z,4.25
2023-01-23T16:17:29.275Z,4.27
2023-01-23T16:19:57.376Z,4.20
2023-01-23T16:22:29.563Z,4.14
2023-01-23T16:24:58.933Z,4.09
2023-01-23T16:27:28.288Z,4.12
2023-01-23T16:29:57.250Z,4.12
2023-01-23T16:32:26.207Z,4.13
2023-01-23T16:34:54.467Z,4.09
2023-01-23T16:37:22.660Z,4.12
2023-01-23T16:39:52.420Z,4.10
2023-01-23T16:42:23.644Z,4.06
2023-01-23T16:44:52.347Z,4.35
2023-01-23T16:47:20.815Z,4.17
2023-01-23T16:49:53.722Z,4.09
2023-01-23T16:52:26.808Z,4.10
2023-01-23T16:54:56.755Z,4.06
2023-01-23T16:57:25.916Z,4.09
2023-01-23T16:59:56.529Z,4.07
2023-01-23T17:02:30.682Z,4.08
2023-01-23T17:04:59.268Z,4.09
2023-01-23T17:07:27.657Z,4.11
2023-01-23T17:09:58.018Z,4.07
2023-01-23T17:12:29.590Z,3.97
2023-01-23T17:14:58.389Z,4.02
2023-01-23T17:17:30.613Z,4.05
2023-01-23T17:20:01.313Z,4.08
2023-01-23T17:22:33.877Z,4.02
2023-01-23T17:25:03.766Z,3.99
2023-01-23T17:27:41.696Z,4.03
2023-01-23T17:30:18.151Z,3.99
2023-01-23T17:32:49.841Z,4.00
2023-01-23T17:35:24.399Z,3.94
2023-01-23T17:37:54.569Z,3.97
2023-01-23T17:40:28.927Z,4.03
2023-01-23T17:42:59.052Z,3.99
2023-01-23T17:45:29.855Z,3.98
2023-01-23T17:47:58.788Z,4.00
2023-01-23T17:50:32.987Z,3.99
2023-01-23T17:53:03.980Z,3.93
2023-01-23T17:55:34.092Z,4.04
2023-01-23T17:58:03.459Z,3.90
2023-01-23T18:00:35.958Z,3.90
2023-01-23T18:03:05.990Z,3.91
2023-01-23T18:05:39.025Z,3.90
2023-01-23T18:08:08.723Z,3.89
2023-01-23T18:10:39.845Z,3.87
2023-01-23T18:13:21.835Z,3.78
2023-01-23T18:16:05.438Z,3.80
2023-01-23T18:18:37.641Z,3.80
2023-01-23T18:21:10.179Z,3.81
2023-01-23T18:23:40.385Z,3.83
2023-01-23T18:26:26.858Z,3.71
2023-01-23T18:29:04.181Z,3.73
2023-01-23T18:31:41.922Z,3.67
2023-01-23T18:34:27.582Z,3.70
2023-01-23T18:37:07.073Z,3.67
2023-01-23T18:39:53.911Z,3.66
2023-01-23T18:42:31.055Z,3.65
2023-01-23T18:45:05.621Z,3.64
2023-01-23T18:47:46.917Z,3.64
2023-01-23T18:50:19.301Z,6.55
2023-01-23T18:53:01.582Z,7.96
2023-01-23T18:55:40.371Z,8.00
2023-01-23T18:58:28.736Z,8.14
2023-01-23T19:01:07.225Z,8.08
2023-01-23T19:03:43.349Z,8.70
2023-01-23T19:06:21.001Z,8.97
2023-01-23T19:08:55.133Z,8.90
2023-01-23T19:11:41.857Z,8.98
2023-01-23T19:14:23.388Z,7.79
2023-01-23T19:17:01.760Z,6.62
2023-01-23T19:19:36.386Z,6.01
2023-01-23T19:22:13.268Z,5.55
2023-01-23T19:24:43.453Z,5.16
2023-01-23T19:27:22.299Z,4.80
2023-01-23T19:29:59.819Z,4.69
2023-01-23T19:32:31.299Z,4.62
2023-01-23T19:35:13.336Z,4.52
2023-01-23T19:37:44.353Z,4.52
2023-01-23T19:40:15.208Z,4.43
2023-01-23T19:42:56.212Z,4.34
2023-01-23T19:45:37.320Z,4.27
2023-01-23T19:48:07.611Z,4.25
2023-01-23T19:50:39.561Z,4.25
2023-01-23T19:53:09.603Z,4.25
2023-01-23T19:55:43.395Z,4.08
2023-01-23T19:58:13.210Z,4.09
2023-01-23T20:00:44.473Z,4.00
2023-01-23T20:03:15.857Z,3.93
2023-01-23T20:05:47.686Z,3.87
2023-01-23T20:08:18.783Z,3.89
2023-01-23T20:10:48.560Z,3.75
2023-01-23T20:13:18.044Z,3.73
2023-01-23T20:16:06.970Z,3.60
2023-01-23T20:18:36.962Z,3.61
2023-01-23T20:21:06.617Z,3.57
2023-01-23T20:23:38.032Z,3.47
2023-01-23T20:26:09.549Z,3.45
2023-01-23T20:28:40.996Z,3.49
2023-01-23T20:31:16.533Z,3.51
2023-01-23T20:33:45.839Z,3.45
2023-01-23T20:36:16.327Z,3.40
2023-01-23T20:38:48.529Z,3.39
2023-01-23T20:41:20.831Z,3.35
2023-01-23T20:43:51.937Z,3.34
2023-01-23T20:46:29.132Z,3.35
2023-01-23T20:48:58.741Z,3.33
2023-01-23T20:51:30.211Z,3.28
2023-01-23T20:54:01.682Z,3.32
2023-01-23T20:56:31.238Z,3.19
2023-01-23T20:59:17.910Z,3.32
2023-01-23T21:02:06.203Z,3.21
2023-01-23T21:04:36.682Z,3.15
2023-01-23T21:07:06.081Z,3.10
2023-01-23T21:09:35.196Z,3.16
2023-01-23T21:12:03.909Z,3.08
2023-01-23T21:14:37.954Z,3.13
2023-01-23T21:17:11.760Z,3.17
2023-01-23T21:19:41.228Z,3.18
2023-01-23T21:22:10.206Z,3.15
2023-01-23T21:24:39.915Z,3.24
2023-01-23T21:27:08.260Z,3.21
2023-01-23T21:29:39.007Z,3.06
2023-01-23T21:32:09.366Z,3.04
2023-01-23T21:34:38.647Z,2.98
2023-01-23T21:37:10.867Z,2.98
2023-01-23T21:39:39.448Z,3.01
2023-01-23T21:42:07.883Z,2.93
2023-01-23T21:44:36.118Z,2.93
2023-01-23T21:47:04.352Z,2.92
2023-01-23T21:49:34.201Z,2.81
2023-01-23T21:52:02.319Z,2.83
2023-01-23T21:54:30.476Z,2.84
2023-01-23T21:56:58.592Z,2.82
2023-01-23T21:59:26.833Z,2.87
2023-01-23T22:01:54.037Z,2.84
2023-01-23T22:04:23.186Z,2.77
2023-01-23T22:06:55.767Z,2.74
2023-01-23T22:09:25.791Z,2.79
2023-01-23T22:11:54.919Z,2.86
2023-01-23T22:14:24.024Z,2.82
2023-01-23T22:16:52.225Z,2.81
2023-01-23T22:19:25.619Z,2.78
2023-01-23T22:21:57.218Z,2.77
2023-01-23T22:24:25.468Z,2.76
2023-01-23T22:26:53.835Z,2.76
2023-01-23T22:29:23.060Z,2.67
2023-01-23T22:31:52.334Z,2.67
2023-01-23T22:34:20.557Z,2.73
2023-01-23T22:36:48.748Z,2.80
2023-01-23T22:39:19.825Z,2.77
2023-01-23T22:41:50.212Z,2.77
2023-01-23T22:44:18.818Z,2.70
2023-01-23T22:46:47.108Z,2.74
2023-01-23T22:49:15.268Z,2.76
2023-01-23T22:51:43.424Z,2.74
2023-01-23T22:54:11.511Z,2.73
2023-01-23T22:56:41.135Z,2.74
2023-01-23T22:59:10.541Z,2.69
2023-01-23T23:01:38.705Z,2.72
2023-01-23T23:04:08.979Z,2.69
2023-01-23T23:06:37.148Z,2.70
2023-01-23T23:09:05.411Z,2.72
2023-01-23T23:11:35.287Z,2.77
2023-01-23T23:14:04.788Z,2.78
2023-01-23T23:16:33.540Z,2.74
2023-01-23T23:19:03.256Z,2.79
2023-01-23T23:21:33.997Z,2.76
2023-01-23T23:24:02.852Z,2.74
2023-01-23T23:26:31.814Z,2.79
2023-01-23T23:29:00.067Z,2.80
2023-01-23T23:31:29.745Z,2.82
2023-01-23T23:33:58.353Z,2.68
2023-01-23T23:36:27.185Z,2.68
2023-01-23T23:38:55.509Z,2.79
2023-01-23T23:41:23.862Z,2.70
2023-01-23T23:43:52.592Z,2.72
2023-01-23T23:46:20.699Z,2.74
2023-01-23T23:48:50.168Z,2.77
2023-01-23T23:51:19.801Z,2.83
2023-01-23T23:53:48.079Z,2.83
2023-01-23T23:56:21.835Z,2.84
2023-01-23T23:58:50.002Z,2.78
